Time;durP1;ratioP1;P1;durP2;ratioP2;P2;SDS_P1;SDS_P2;PMS_P1;PMS_P2;Temp;Humidity;BMP_temperature;BMP_pressure;BME280_temperature;BME280_humidity;BME280_pressure;Samples;Min_cycle;Max_cycle;Signal;HPM_P1;HPM_P2
2022/07/02 00:01:49;;;;;;;1.23;0.77;;;23.80;48.50;;;;;;5128638;27;20522;-48
2022/07/02 00:04:33;;;;;;;1.23;1.10;;;23.80;48.50;;;;;;5076221;27;20543;-49
2022/07/02 00:07:14;;;;;;;1.10;1.00;;;23.80;48.50;;;;;;5087646;28;20518;-48
2022/07/02 00:09:56;;;;;;;0.87;0.80;;;23.80;48.60;;;;;;5072206;27;20586;-48
2022/07/02 00:12:37;;;;;;;0.90;0.77;;;23.80;48.50;;;;;;5088082;27;20582;-48
2022/07/02 00:15:17;;;;;;;1.10;0.80;;;23.80;48.60;;;;;;5055788;27;21145;-49
2022/07/02 00:17:58;;;;;;;1.43;0.90;;;23.70;48.50;;;;;;5107141;27;20532;-49
2022/07/02 00:20:41;;;;;;;1.20;0.77;;;23.70;48.50;;;;;;5046120;27;20591;-48
2022/07/02 00:23:21;;;;;;;1.00;0.70;;;23.70;48.60;;;;;;5086389;28;20540;-48
2022/07/02 00:26:04;;;;;;;1.70;1.00;;;23.70;48.60;;;;;;5070251;27;20609;-49
2022/07/02 00:28:49;;;;;;;1.03;0.83;;;23.70;48.60;;;;;;5117443;27;20532;-49
2022/07/02 00:31:31;;;;;;;1.20;1.10;;;23.70;48.60;;;;;;5080461;28;20603;-49
2022/07/02 00:34:12;;;;;;;1.07;0.77;;;23.70;48.60;;;;;;5085964;27;20520;-48
2022/07/02 00:36:56;;;;;;;2.10;1.00;;;23.70;48.60;;;;;;5128936;27;20619;-47
2022/07/02 00:39:36;;;;;;;1.20;0.93;;;23.70;48.60;;;;;;5057088;28;20598;-48
2022/07/02 00:42:18;;;;;;;1.50;0.90;;;23.70;48.60;;;;;;5088619;27;20516;-48
2022/07/02 00:45:00;;;;;;;1.33;1.23;;;23.70;48.60;;;;;;5110913;27;20597;-48
2022/07/02 00:47:42;;;;;;;1.03;0.93;;;23.70;48.60;;;;;;5087705;27;21108;-47
2022/07/02 00:50:23;;;;;;;1.77;1.57;;;23.70;48.60;;;;;;5090122;27;20537;-49
2022/07/02 00:53:03;;;;;;;1.67;0.90;;;23.70;48.60;;;;;;5127681;27;20585;-48
2022/07/02 00:55:43;;;;;;;2.37;1.10;;;23.70;48.70;;;;;;5044946;27;20707;-49
2022/07/02 00:58:23;;;;;;;1.37;1.03;;;23.60;48.60;;;;;;5088240;27;20524;-48
2022/07/02 01:01:04;;;;;;;1.27;0.90;;;23.60;48.60;;;;;;5066844;27;20553;-48
2022/07/02 01:03:48;;;;;;;1.30;0.93;;;23.60;48.70;;;;;;5109848;27;20577;-48
2022/07/02 01:06:31;;;;;;;1.33;1.20;;;23.60;48.60;;;;;;5087865;27;21046;-48
2022/07/02 01:12:15;;;;;;;1.33;1.10;;;23.60;48.70;;;;;;5087561;28;20528;-48
2022/07/02 01:14:57;;;;;;;1.00;0.90;;;23.60;48.60;;;;;;5092193;27;20994;-47
2022/07/02 01:17:38;;;;;;;1.00;0.80;;;23.60;48.60;;;;;;5082583;28;20537;-48
2022/07/02 01:20:19;;;;;;;1.63;1.20;;;23.60;48.70;;;;;;5085724;27;20600;-48
2022/07/02 01:22:59;;;;;;;1.43;1.33;;;23.60;48.80;;;;;;5127984;27;20853;-48
2022/07/02 01:25:39;;;;;;;1.50;1.07;;;23.60;48.80;;;;;;5072628;28;20601;-49
2022/07/02 01:28:21;;;;;;;1.50;1.10;;;23.60;48.80;;;;;;5088740;28;20566;-48
2022/07/02 01:31:02;;;;;;;2.17;1.30;;;23.60;48.80;;;;;;5094471;27;20540;-49
2022/07/02 01:33:43;;;;;;;1.30;1.10;;;23.60;48.80;;;;;;5068959;28;20565;-49
2022/07/02 01:36:25;;;;;;;1.53;0.80;;;23.60;48.80;;;;;;5067310;27;20601;-49
2022/07/02 01:39:06;;;;;;;1.40;1.30;;;23.60;48.70;;;;;;5083450;28;20587;-48
2022/07/02 01:41:46;;;;;;;2.50;1.23;;;23.60;48.70;;;;;;5087882;27;20937;-49
2022/07/02 01:44:27;;;;;;;3.03;1.60;;;23.50;48.70;;;;;;5076673;28;20604;-48
2022/07/02 01:47:09;;;;;;;1.10;1.00;;;23.60;48.80;;;;;;5087842;27;20577;-47
2022/07/02 01:49:50;;;;;;;1.90;1.00;;;23.50;48.80;;;;;;5066801;28;20925;-48
2022/07/02 01:52:30;;;;;;;2.20;1.10;;;23.50;48.70;;;;;;5134734;27;20524;-48
2022/07/02 01:55:11;;;;;;;1.10;1.00;;;23.50;48.80;;;;;;5058624;27;20551;-48
2022/07/02 01:58:03;;;;;;;1.70;0.90;;;23.50;48.60;;;;;;5074841;27;20604;-49
2022/07/02 02:00:44;;;;;;;1.10;1.00;;;23.50;48.70;;;;;;5071617;27;20587;-50
2022/07/02 02:03:26;;;;;;;1.23;1.00;;;23.50;48.80;;;;;;5071941;28;20857;-49
2022/07/02 02:06:07;;;;;;;1.30;1.10;;;23.50;48.80;;;;;;5073879;27;20574;-48
2022/07/02 02:08:49;;;;;;;1.97;1.20;;;23.50;48.70;;;;;;5086806;27;20589;-49
2022/07/02 02:11:30;;;;;;;1.90;1.27;;;23.50;48.70;;;;;;5095331;27;20928;-47
2022/07/02 02:14:11;;;;;;;2.13;0.93;;;23.50;48.70;;;;;;5103710;27;20575;-48
2022/07/02 02:16:53;;;;;;;1.63;1.30;;;23.50;48.80;;;;;;5127289;27;20590;-49
2022/07/02 02:19:34;;;;;;;1.30;1.10;;;23.50;48.90;;;;;;5081409;27;20934;-48
2022/07/02 02:22:16;;;;;;;2.53;1.33;;;23.50;48.80;;;;;;5088109;28;21090;-48
2022/07/02 02:24:57;;;;;;;1.33;1.23;;;23.50;48.90;;;;;;5145600;27;20535;-49
2022/07/02 02:27:37;;;;;;;2.90;1.23;;;23.50;48.90;;;;;;5087918;28;20516;-48
2022/07/02 02:30:23;;;;;;;1.50;0.93;;;23.50;48.80;;;;;;5064799;28;20542;-48
2022/07/02 02:33:03;;;;;;;2.17;1.40;;;23.40;48.80;;;;;;5080891;28;20532;-48
2022/07/02 02:35:44;;;;;;;1.37;1.13;;;23.40;48.70;;;;;;5084714;27;20594;-48
2022/07/02 02:38:26;;;;;;;2.50;1.37;;;23.40;48.70;;;;;;5086525;28;20656;-48
2022/07/02 02:41:09;;;;;;;1.20;1.00;;;23.40;48.80;;;;;;5056811;28;20542;-49
2022/07/02 02:43:53;;;;;;;2.33;1.50;;;23.40;48.80;;;;;;5087995;28;21088;-48
2022/07/02 02:46:33;;;;;;;1.63;0.80;;;23.40;48.80;;;;;;5093059;22;21327;-46
2022/07/02 02:49:14;;;;;;;1.93;1.17;;;23.40;48.80;;;;;;5145265;27;20573;-49
2022/07/02 02:51:54;;;;;;;1.50;1.10;;;23.40;48.80;;;;;;5108574;27;20565;-47
2022/07/02 02:54:34;;;;;;;2.23;0.90;;;23.40;48.80;;;;;;5076872;28;20954;-47
2022/07/02 02:57:16;;;;;;;1.33;1.23;;;23.40;48.80;;;;;;5128184;27;20594;-47
2022/07/02 02:59:57;;;;;;;0.73;0.73;;;23.40;48.90;;;;;;5080711;27;20588;-48
2022/07/02 03:02:37;;;;;;;1.20;1.00;;;23.40;48.90;;;;;;5081169;28;21124;-48
2022/07/02 03:05:17;;;;;;;3.03;1.47;;;23.30;48.80;;;;;;5066319;28;20592;-48
2022/07/02 03:07:58;;;;;;;1.43;1.17;;;23.30;48.80;;;;;;5105627;27;20948;-48
2022/07/02 03:10:38;;;;;;;1.70;1.20;;;23.30;48.60;;;;;;5090205;27;20541;-48
2022/07/02 03:13:18;;;;;;;1.90;0.93;;;23.30;48.60;;;;;;5094800;28;20508;-47
2022/07/02 03:15:57;;;;;;;1.40;1.27;;;23.30;48.70;;;;;;5071247;27;21106;-48
2022/07/02 03:23:10;;;;;;;1.53;1.27;;;23.30;48.70;;;;;;5087394;27;20545;-48
2022/07/02 03:25:50;;;;;;;2.23;0.97;;;23.30;48.70;;;;;;5112253;27;20550;-49
2022/07/02 03:28:30;;;;;;;1.33;1.23;;;23.30;48.90;;;;;;5088017;28;20574;-47
2022/07/02 03:31:11;;;;;;;1.47;0.90;;;23.30;48.90;;;;;;5068444;27;20543;-49
2022/07/02 03:33:51;;;;;;;1.43;1.20;;;23.20;48.60;;;;;;5124678;27;21052;-48
2022/07/02 03:36:31;;;;;;;1.57;1.47;;;23.20;48.60;;;;;;5063405;28;20678;-48
2022/07/02 03:39:13;;;;;;;1.30;1.10;;;23.20;48.60;;;;;;5086938;27;21045;-48
2022/07/02 03:41:52;;;;;;;2.13;1.27;;;23.20;48.60;;;;;;5084579;27;20565;-48
2022/07/02 03:44:32;;;;;;;1.10;0.97;;;23.20;48.70;;;;;;5114382;27;20599;-49
2022/07/02 03:47:13;;;;;;;1.20;0.93;;;23.20;48.80;;;;;;5113679;27;20851;-48
2022/07/02 03:49:53;;;;;;;1.63;1.10;;;23.20;48.70;;;;;;5113088;27;21054;-47
2022/07/02 03:52:33;;;;;;;1.10;1.00;;;23.20;48.80;;;;;;5086680;27;20582;-47
2022/07/02 03:55:14;;;;;;;1.70;1.10;;;23.20;48.70;;;;;;5073719;27;20545;-47
2022/07/02 03:57:54;;;;;;;1.40;1.30;;;23.20;48.60;;;;;;5096212;27;20569;-48
2022/07/02 04:00:37;;;;;;;1.53;1.17;;;23.20;48.70;;;;;;5064690;28;20538;-48
2022/07/02 04:03:17;;;;;;;2.37;1.20;;;23.20;48.70;;;;;;5086146;28;20532;-47
2022/07/02 04:05:57;;;;;;;2.37;1.00;;;23.20;48.70;;;;;;5111592;27;20615;-48
2022/07/02 04:08:38;;;;;;;1.27;0.90;;;23.20;48.70;;;;;;5106663;27;20530;-48
2022/07/02 04:11:20;;;;;;;1.17;1.07;;;23.20;48.80;;;;;;5070666;27;20590;-47
2022/07/02 04:14:00;;;;;;;1.60;1.10;;;23.20;48.80;;;;;;5074782;28;20591;-47
2022/07/02 04:16:40;;;;;;;1.20;0.83;;;23.10;48.70;;;;;;5087482;28;20553;-48
2022/07/02 04:19:21;;;;;;;1.40;0.90;;;23.20;48.80;;;;;;5121048;27;20625;-48
2022/07/02 04:22:02;;;;;;;1.00;0.90;;;23.10;48.70;;;;;;5110113;27;20583;-47
2022/07/02 04:24:43;;;;;;;1.87;1.10;;;23.10;48.60;;;;;;5090529;27;20592;-47
2022/07/02 04:27:23;;;;;;;1.43;0.80;;;23.10;48.60;;;;;;5114699;27;20590;-47
2022/07/02 04:30:09;;;;;;;1.40;1.00;;;23.10;49.70;;;;;;5082073;27;20567;-48
2022/07/02 04:32:49;;;;;;;0.90;0.70;;;23.10;48.40;;;;;;5088592;27;20585;-49
2022/07/02 04:35:30;;;;;;;1.43;1.13;;;23.10;48.60;;;;;;5052008;27;20540;-46
2022/07/02 04:38:11;;;;;;;1.17;0.80;;;23.10;48.30;;;;;;5086190;28;20527;-47
2022/07/02 04:40:50;;;;;;;2.57;1.30;;;23.00;48.50;;;;;;5071832;27;21088;-51
2022/07/02 04:43:32;;;;;;;2.30;1.30;;;23.00;48.40;;;;;;5070829;27;20942;-47
2022/07/02 04:46:12;;;;;;;1.00;0.73;;;23.10;48.50;;;;;;5057355;27;20627;-48
2022/07/02 04:48:54;;;;;;;1.47;0.87;;;23.10;48.60;;;;;;5108399;27;20502;-48
2022/07/02 04:51:35;;;;;;;1.00;0.80;;;23.10;48.60;;;;;;5155875;27;20529;-51
2022/07/02 04:54:16;;;;;;;1.77;1.10;;;23.00;48.30;;;;;;5102943;27;20558;-47
2022/07/02 04:56:57;;;;;;;2.37;1.07;;;23.00;48.50;;;;;;5128405;27;20570;-48
2022/07/02 04:59:37;;;;;;;1.13;1.03;;;23.00;48.60;;;;;;5123747;27;20591;-46
2022/07/02 05:02:19;;;;;;;1.57;0.93;;;23.00;48.30;;;;;;5132192;27;20574;-47
2022/07/02 05:05:00;;;;;;;1.03;0.93;;;23.00;48.60;;;;;;5075982;27;20542;-46
2022/07/02 05:07:41;;;;;;;2.20;1.10;;;23.00;48.60;;;;;;5127214;27;20558;-47
2022/07/02 05:10:23;;;;;;;1.20;1.00;;;23.00;48.60;;;;;;5094683;27;20954;-48
2022/07/02 05:13:05;;;;;;;0.87;0.67;;;23.00;48.60;;;;;;5087836;27;20515;-47
2022/07/02 05:15:45;;;;;;;1.20;1.10;;;23.00;48.20;;;;;;5044895;27;20543;-47
2022/07/02 05:18:25;;;;;;;1.93;1.00;;;23.00;48.20;;;;;;5088132;28;21096;-48
2022/07/02 05:21:05;;;;;;;2.30;1.00;;;23.00;48.30;;;;;;5070876;27;20540;-47
2022/07/02 05:23:46;;;;;;;0.90;0.80;;;23.00;48.30;;;;;;5086150;28;20530;-48
2022/07/02 05:26:26;;;;;;;1.20;0.70;;;23.00;48.30;;;;;;5047755;27;20545;-48
2022/07/02 05:29:06;;;;;;;1.20;1.07;;;23.00;48.30;;;;;;5087220;28;20925;-47
2022/07/02 05:31:46;;;;;;;2.47;1.10;;;23.00;48.40;;;;;;5083127;28;21063;-49
2022/07/02 05:34:26;;;;;;;1.30;0.87;;;22.90;48.10;;;;;;5078006;28;20550;-47
2022/07/02 05:37:06;;;;;;;2.67;1.10;;;23.00;48.10;;;;;;5087309;28;20580;-50
2022/07/02 05:39:46;;;;;;;0.98;0.82;;;23.00;48.00;;;;;;5123540;27;1210501;-47
2022/07/02 05:42:27;;;;;;;2.50;0.90;;;22.90;47.80;;;;;;5129133;27;20555;-46
2022/07/02 05:45:10;;;;;;;1.40;1.10;;;22.90;47.90;;;;;;5072881;28;20596;-47
2022/07/02 05:47:50;;;;;;;0.80;0.80;;;23.00;47.80;;;;;;5078895;28;21113;-48
2022/07/02 05:50:29;;;;;;;1.10;0.87;;;22.90;47.90;;;;;;5108172;27;20600;-47
2022/07/02 05:53:09;;;;;;;1.20;1.10;;;22.90;48.00;;;;;;5087201;27;20929;-47
2022/07/02 05:55:51;;;;;;;2.33;1.10;;;22.90;47.60;;;;;;5057332;27;20591;-48
2022/07/02 05:58:32;;;;;;;1.73;1.13;;;22.90;47.90;;;;;;5087935;27;20577;-47
2022/07/02 06:01:13;;;;;;;1.57;0.70;;;22.90;47.90;;;;;;5050098;27;20606;-47
2022/07/02 06:03:53;;;;;;;1.90;1.13;;;23.00;47.70;;;;;;5073461;27;20528;-48
2022/07/02 06:09:32;;;;;;;2.30;0.70;;;22.90;47.50;;;;;;5081409;27;20594;-47
2022/07/02 06:12:12;;;;;;;1.03;1.00;;;22.90;47.50;;;;;;5128170;27;20656;-47
2022/07/02 06:14:53;;;;;;;1.37;0.83;;;22.90;47.80;;;;;;5072887;28;20623;-47
2022/07/02 06:17:36;;;;;;;1.33;1.07;;;22.90;47.70;;;;;;5081322;27;20590;-47
2022/07/02 06:20:17;;;;;;;1.83;1.23;;;22.90;48.00;;;;;;5058517;27;20587;-48
2022/07/02 06:23:02;;;;;;;1.20;0.80;;;22.90;47.70;;;;;;5086012;28;20581;-49
2022/07/02 06:25:44;;;;;;;1.30;1.10;;;22.90;47.80;;;;;;5070752;27;20607;-47
2022/07/02 06:28:25;;;;;;;1.67;1.03;;;22.90;47.90;;;;;;5112123;27;20593;-47
2022/07/02 06:31:05;;;;;;;1.67;1.10;;;22.90;47.90;;;;;;5070617;27;20528;-47
2022/07/02 06:33:46;;;;;;;1.60;0.80;;;22.90;47.70;;;;;;5082484;28;20531;-73
2022/07/02 06:36:26;;;;;;;1.67;1.20;;;22.90;47.20;;;;;;5084065;27;20964;-47
2022/07/02 06:39:06;;;;;;;2.30;1.13;;;22.90;47.50;;;;;;5085092;27;20568;-48
2022/07/02 06:44:43;;;;;;;3.27;0.80;;;22.90;47.50;;;;;;5080045;28;20594;-48
2022/07/02 06:47:25;;;;;;;1.97;1.10;;;22.90;47.50;;;;;;5107792;27;20580;-47
2022/07/02 06:50:06;;;;;;;1.30;0.90;;;22.90;47.60;;;;;;5109102;27;20604;-50
2022/07/02 06:52:47;;;;;;;2.00;1.00;;;22.90;47.10;;;;;;5086029;28;20595;-49
2022/07/02 06:55:27;;;;;;;0.90;0.70;;;22.90;47.20;;;;;;5093966;27;20640;-47
2022/07/02 06:58:09;;;;;;;1.10;0.77;;;22.90;47.20;;;;;;5083742;27;20975;-47
2022/07/02 07:00:50;;;;;;;0.87;0.87;;;22.90;47.10;;;;;;5063778;28;20542;-47
2022/07/02 07:03:33;;;;;;;1.00;0.90;;;22.90;47.20;;;;;;5087328;28;20584;-73
2022/07/02 07:06:15;;;;;;;2.30;0.93;;;22.90;46.90;;;;;;5099018;27;20615;-47
2022/07/02 07:08:56;;;;;;;1.10;1.00;;;22.90;47.10;;;;;;5106242;27;20607;-48
2022/07/02 07:11:36;;;;;;;1.50;0.70;;;22.90;47.20;;;;;;5108022;27;20538;-48
2022/07/02 07:14:17;;;;;;;1.70;1.07;;;22.90;46.90;;;;;;5084340;27;20525;-47
2022/07/02 07:16:59;;;;;;;2.90;1.03;;;22.90;46.90;;;;;;5085250;27;20737;-47
2022/07/02 07:19:40;;;;;;;1.23;0.83;;;22.90;47.10;;;;;;5115811;27;20551;-47
2022/07/02 07:22:20;;;;;;;4.97;1.03;;;22.90;46.80;;;;;;5079636;28;20524;-48
2022/07/02 07:25:01;;;;;;;1.10;0.83;;;22.90;47.00;;;;;;5099896;27;20585;-47
2022/07/02 07:27:43;;;;;;;4.80;0.77;;;22.90;47.00;;;;;;5086970;27;20960;-48
2022/07/02 07:30:23;;;;;;;1.50;0.80;;;22.90;46.80;;;;;;5113916;27;1327604;-48
2022/07/02 07:33:06;;;;;;;1.63;0.70;;;22.80;46.80;;;;;;5086059;28;20536;-47
2022/07/02 07:35:50;;;;;;;2.13;0.90;;;22.80;46.60;;;;;;5043724;28;20550;-47
2022/07/02 07:38:32;;;;;;;1.10;0.90;;;22.90;46.70;;;;;;5120559;27;20544;-48
2022/07/02 07:41:16;;;;;;;1.90;0.67;;;22.90;45.40;;;;;;5058543;27;20604;-47
2022/07/02 07:43:57;;;;;;;1.67;0.73;;;22.80;46.20;;;;;;5137814;27;20598;-48
2022/07/02 07:46:39;;;;;;;2.70;0.90;;;22.80;46.10;;;;;;5067386;27;20947;-48
2022/07/02 07:49:20;;;;;;;1.13;0.90;;;22.80;46.00;;;;;;5097268;27;20582;-48
2022/07/02 07:52:02;;;;;;;1.53;0.70;;;22.90;46.20;;;;;;5084562;28;20593;-48
2022/07/02 07:54:44;;;;;;;1.20;0.80;;;22.80;46.00;;;;;;5082784;27;20755;-47
2022/07/02 07:57:26;;;;;;;1.30;0.73;;;22.80;46.10;;;;;;5081503;28;20530;-46
2022/07/02 08:00:09;;;;;;;2.97;1.20;;;22.90;46.40;;;;;;5078575;27;20541;-48
2022/07/02 08:02:52;;;;;;;2.30;0.73;;;22.90;45.90;;;;;;5078415;28;20536;-72
2022/07/02 08:05:35;;;;;;;1.33;0.60;;;22.90;45.90;;;;;;5049862;27;20550;-49
2022/07/02 08:08:17;;;;;;;3.63;0.80;;;22.90;46.20;;;;;;5106723;27;20566;-47
2022/07/02 08:10:58;;;;;;;4.80;0.90;;;22.90;45.90;;;;;;5076055;27;20621;-47
2022/07/02 08:13:39;;;;;;;2.23;0.87;;;23.00;46.20;;;;;;5096693;27;20615;-48
2022/07/02 08:16:21;;;;;;;1.90;0.63;;;22.90;46.20;;;;;;5067802;27;20590;-45
2022/07/02 08:19:02;;;;;;;2.50;0.80;;;22.90;45.70;;;;;;5086753;27;20531;-47
2022/07/02 08:21:43;;;;;;;4.00;0.90;;;23.00;45.90;;;;;;5124762;27;21100;-47
2022/07/02 08:24:26;;;;;;;3.07;1.20;;;23.00;46.00;;;;;;5075818;28;20533;-48
2022/07/02 08:27:08;;;;;;;2.80;0.90;;;23.00;45.60;;;;;;5128567;27;20587;-48
2022/07/02 08:29:55;;;;;;;2.63;0.97;;;22.90;45.60;;;;;;5110478;27;20545;-51
2022/07/02 08:32:44;;;;;;;8.90;1.80;;;22.90;45.40;;;;;;5102125;27;20880;-47
2022/07/02 08:35:27;;;;;;;2.03;0.90;;;22.90;45.70;;;;;;5057907;28;20550;-48
2022/07/02 08:38:09;;;;;;;4.27;0.83;;;22.90;45.90;;;;;;5099923;27;20617;-47
2022/07/02 08:40:50;;;;;;;2.20;0.70;;;22.90;45.90;;;;;;5056938;27;20560;-47
2022/07/02 08:43:32;;;;;;;0.70;0.70;;;22.90;46.10;;;;;;5080179;27;3018210;-48
2022/07/02 08:46:16;;;;;;;1.30;0.67;;;22.90;46.00;;;;;;5046034;27;20581;-47
2022/07/02 08:49:00;;;;;;;1.07;0.70;;;22.80;45.90;;;;;;5067872;22;20563;-49
2022/07/02 08:51:45;;;;;;;2.13;0.80;;;22.90;46.00;;;;;;5088183;27;20519;-49
2022/07/02 08:54:27;;;;;;;1.40;0.67;;;22.80;45.90;;;;;;5117864;27;20808;-51
2022/07/02 08:57:11;;;;;;;2.10;0.60;;;22.90;45.70;;;;;;5128540;27;20608;-49
2022/07/02 08:59:51;;;;;;;1.10;0.70;;;22.80;45.90;;;;;;5118119;27;1229356;-51
2022/07/02 09:02:42;;;;;;;1.27;0.90;;;22.80;45.80;;;;;;5087827;28;21120;-50
2022/07/02 09:05:24;;;;;;;1.00;0.70;;;22.80;45.70;;;;;;5055769;28;20594;-49
2022/07/02 09:08:06;;;;;;;1.27;0.87;;;22.80;45.80;;;;;;5126651;27;21059;-53
2022/07/02 09:10:51;;;;;;;1.40;0.67;;;22.80;45.90;;;;;;5045445;27;20967;-49
2022/07/02 09:13:34;;;;;;;0.63;0.50;;;22.80;45.80;;;;;;5128344;27;20948;-48
2022/07/02 09:16:16;;;;;;;2.13;0.63;;;22.80;45.90;;;;;;5088673;27;21024;-50
2022/07/02 09:18:58;;;;;;;1.47;0.60;;;22.80;46.00;;;;;;5113736;27;20983;-48
2022/07/02 09:21:44;;;;;;;2.20;0.70;;;22.90;46.00;;;;;;5088003;27;20548;-48
2022/07/02 09:24:32;;;;;;;1.67;0.50;;;22.90;45.80;;;;;;5070529;28;20593;-49
2022/07/02 09:27:15;;;;;;;1.17;0.80;;;22.90;46.00;;;;;;5087722;28;20557;-49
2022/07/02 09:29:56;;;;;;;1.10;0.70;;;22.80;45.90;;;;;;5072655;28;20546;-49
2022/07/02 09:32:43;;;;;;;0.70;0.60;;;22.80;45.80;;;;;;5105684;27;20636;-48
2022/07/02 09:35:24;;;;;;;0.80;0.60;;;22.80;45.90;;;;;;5067484;28;20943;-49
2022/07/02 09:38:10;;;;;;;0.80;0.60;;;22.80;45.90;;;;;;5068723;28;20947;-49
2022/07/02 09:40:54;;;;;;;2.60;0.60;;;22.80;45.90;;;;;;5084402;27;20561;-49
2022/07/02 09:43:37;;;;;;;1.27;0.70;;;22.80;45.90;;;;;;5081088;28;20595;-47
2022/07/02 09:46:19;;;;;;;2.80;0.60;;;22.80;45.70;;;;;;5066768;27;20637;-48
2022/07/02 09:49:08;;;;;;;0.90;0.77;;;22.80;45.90;;;;;;5083949;27;20599;-48
2022/07/02 09:51:51;;;;;;;0.60;0.50;;;22.80;46.10;;;;;;5107237;27;20529;-49
2022/07/02 09:54:31;;;;;;;0.70;0.50;;;22.80;46.20;;;;;;5072784;28;20537;-48
2022/07/02 09:57:14;;;;;;;1.43;0.77;;;22.80;46.10;;;;;;5125466;27;20614;-49
2022/07/02 10:00:04;;;;;;;0.80;0.60;;;22.80;45.90;;;;;;5081007;28;20538;-49
2022/07/02 10:02:51;;;;;;;0.80;0.50;;;22.80;46.00;;;;;;5122869;27;20579;-49
2022/07/02 10:05:34;;;;;;;2.20;0.63;;;22.80;45.90;;;;;;5051514;27;20628;-50
2022/07/02 10:08:15;;;;;;;0.60;0.43;;;22.80;45.80;;;;;;5080183;28;20593;-49
2022/07/02 10:10:56;;;;;;;1.03;0.60;;;22.80;45.60;;;;;;5081710;27;20974;-49
2022/07/02 10:13:38;;;;;;;2.37;1.30;;;22.80;45.60;;;;;;5128713;27;20581;-49
2022/07/02 10:16:22;;;;;;;0.77;0.60;;;22.80;45.80;;;;;;5079864;27;20590;-50
2022/07/02 10:19:06;;;;;;;1.23;0.70;;;22.80;45.90;;;;;;5067558;28;20549;-49
2022/07/02 10:21:49;;;;;;;1.10;0.60;;;22.90;45.80;;;;;;5108596;27;20596;-49
2022/07/02 10:24:38;;;;;;;1.30;0.77;;;22.90;46.00;;;;;;5072636;28;20899;-49
2022/07/02 10:27:22;;;;;;;1.00;0.60;;;22.80;45.70;;;;;;5087355;28;20525;-49
2022/07/02 10:30:02;;;;;;;2.10;0.80;;;22.80;45.80;;;;;;5113132;27;20583;-49
2022/07/02 10:32:51;;;;;;;0.80;0.50;;;22.80;45.80;;;;;;5087481;27;20648;-49
2022/07/02 10:35:34;;;;;;;1.30;0.60;;;22.90;45.80;;;;;;5092071;27;20933;-49
2022/07/02 10:38:15;;;;;;;3.03;0.60;;;22.90;45.60;;;;;;5123020;27;20594;-50
2022/07/02 10:40:57;;;;;;;1.07;0.60;;;22.90;45.60;;;;;;5062447;27;20549;-47
2022/07/02 10:43:40;;;;;;;1.10;0.50;;;22.90;45.70;;;;;;5118439;27;20525;-49
2022/07/02 10:46:23;;;;;;;1.90;0.70;;;22.90;45.90;;;;;;5065305;27;20590;-48
2022/07/02 10:49:05;;;;;;;2.40;0.83;;;22.90;46.20;;;;;;5089791;27;20545;-49
2022/07/02 10:51:56;;;;;;;0.87;0.60;;;22.90;46.00;;;;;;5074441;27;20336;-50
2022/07/02 10:54:37;;;;;;;1.23;0.63;;;22.90;46.10;;;;;;5103987;27;20887;-47
2022/07/02 10:57:19;;;;;;;1.27;0.70;;;22.90;45.80;;;;;;5101868;27;20648;-48
2022/07/02 11:00:02;;;;;;;1.13;0.70;;;22.90;46.10;;;;;;5092961;27;20628;-49
2022/07/02 11:02:42;;;;;;;3.10;0.60;;;22.90;46.20;;;;;;5085405;27;20540;-48
2022/07/02 11:05:24;;;;;;;1.17;0.70;;;22.90;46.10;;;;;;5118475;27;20549;-50
2022/07/02 11:08:05;;;;;;;1.00;0.70;;;22.90;46.10;;;;;;5079804;28;20587;-48
2022/07/02 11:10:50;;;;;;;1.40;0.60;;;22.90;46.00;;;;;;5060542;28;20634;-49
2022/07/02 11:13:35;;;;;;;1.43;0.80;;;22.90;45.90;;;;;;5149808;27;20566;-49
2022/07/02 11:16:27;;;;;;;1.00;0.60;;;22.90;45.90;;;;;;5103199;27;21077;-49
2022/07/02 11:19:15;;;;;;;1.30;0.57;;;22.90;46.20;;;;;;5128548;27;21032;-49
2022/07/02 11:21:58;;;;;;;0.70;0.50;;;22.90;46.20;;;;;;5128586;27;20622;-48
2022/07/02 11:24:40;;;;;;;0.80;0.60;;;23.00;46.20;;;;;;5103303;27;21511;-48
2022/07/02 11:27:21;;;;;;;1.50;0.63;;;23.00;46.20;;;;;;5087743;27;21191;-49
2022/07/02 11:30:02;;;;;;;2.20;0.60;;;23.00;46.20;;;;;;5111929;27;20554;-48
2022/07/02 11:32:43;;;;;;;1.17;0.50;;;23.00;46.10;;;;;;5140167;27;20605;-49
2022/07/02 11:35:26;;;;;;;0.67;0.50;;;23.00;46.20;;;;;;5096176;27;21180;-49
2022/07/02 11:38:06;;;;;;;0.90;0.50;;;23.00;46.10;;;;;;5104126;27;20945;-48
2022/07/02 11:40:48;;;;;;;1.17;0.70;;;23.00;46.00;;;;;;5086012;27;20562;-49
2022/07/02 11:43:29;;;;;;;4.67;0.77;;;23.00;46.20;;;;;;5123122;27;20587;-49
2022/07/02 11:46:12;;;;;;;4.43;1.13;;;23.10;46.00;;;;;;5070441;27;20605;-49
2022/07/02 11:48:55;;;;;;;0.93;0.73;;;23.00;46.10;;;;;;5084780;27;20562;-49
2022/07/02 11:51:37;;;;;;;0.70;0.53;;;23.10;46.10;;;;;;5108243;27;20538;-49
2022/07/02 11:54:19;;;;;;;1.63;0.70;;;23.00;46.10;;;;;;5073037;27;20968;-49
2022/07/02 11:57:00;;;;;;;0.73;0.53;;;23.10;46.20;;;;;;5128618;27;20633;-48
2022/07/02 11:59:42;;;;;;;1.23;0.70;;;23.10;46.20;;;;;;5069448;27;20574;-49
2022/07/02 12:02:23;;;;;;;0.93;0.70;;;23.10;46.30;;;;;;5086216;28;20790;-48
2022/07/02 12:05:16;;;;;;;0.80;0.80;;;23.10;47.40;;;;;;5101685;27;20960;-48
2022/07/02 12:07:58;;;;;;;0.60;0.50;;;23.10;46.30;;;;;;5082586;27;20533;-47
2022/07/02 12:10:41;;;;;;;5.70;0.83;;;23.10;46.40;;;;;;5082626;27;20635;-48
2022/07/02 12:13:26;;;;;;;2.10;0.70;;;23.10;46.20;;;;;;5147622;27;20605;-49
2022/07/02 12:16:13;;;;;;;0.80;0.67;;;23.10;46.40;;;;;;5082988;27;20585;-48
2022/07/02 12:19:05;;;;;;;0.70;0.50;;;23.10;46.20;;;;;;5079191;28;20584;-49
2022/07/02 12:21:48;;;;;;;2.23;0.77;;;23.10;46.30;;;;;;5138950;27;20312;-48
2022/07/02 12:24:33;;;;;;;0.80;0.70;;;23.10;46.30;;;;;;5073378;27;20573;-49
2022/07/02 12:27:15;;;;;;;0.60;0.50;;;23.10;46.20;;;;;;5131588;27;20644;-49
2022/07/02 12:30:04;;;;;;;0.80;0.40;;;23.10;46.40;;;;;;5111704;27;20349;-49
2022/07/02 12:32:53;;;;;;;0.83;0.70;;;23.10;46.00;;;;;;5105359;27;21098;-48
2022/07/02 12:35:34;;;;;;;0.80;0.80;;;23.10;46.30;;;;;;5095653;27;20633;-49
2022/07/02 12:38:15;;;;;;;0.87;0.60;;;23.20;46.50;;;;;;5083536;27;20595;-48
2022/07/02 12:41:00;;;;;;;1.03;0.50;;;23.20;46.40;;;;;;5084705;27;20587;-48
2022/07/02 12:43:52;;;;;;;4.13;1.43;;;23.20;46.50;;;;;;5123362;27;20529;-48
2022/07/02 12:46:32;;;;;;;1.27;0.70;;;23.20;46.00;;;;;;5059019;27;20560;-48
2022/07/02 12:49:19;;;;;;;1.13;0.50;;;23.20;46.00;;;;;;5126381;27;20922;-49
2022/07/02 12:52:03;;;;;;;0.77;0.60;;;23.20;46.10;;;;;;5130903;27;1331727;-49
2022/07/02 12:54:44;;;;;;;1.07;0.70;;;23.20;46.20;;;;;;5093888;27;21131;-49
2022/07/02 12:57:26;;;;;;;1.03;0.63;;;23.20;46.20;;;;;;5102608;27;20528;-49
2022/07/02 13:00:09;;;;;;;0.80;0.70;;;23.20;46.20;;;;;;5068647;28;20550;-49
2022/07/02 13:02:59;;;;;;;1.13;0.50;;;23.20;46.30;;;;;;5099746;27;20635;-49
2022/07/02 13:05:41;;;;;;;1.33;0.50;;;23.30;46.30;;;;;;5062893;28;21073;-48
2022/07/02 13:08:24;;;;;;;0.87;0.53;;;23.30;46.30;;;;;;5079771;28;20594;-49
2022/07/02 13:11:05;;;;;;;0.90;0.63;;;23.30;46.40;;;;;;5050447;27;20609;-48
2022/07/02 13:13:49;;;;;;;0.93;0.50;;;23.30;46.40;;;;;;5128076;27;20529;-50
2022/07/02 13:16:30;;;;;;;0.60;0.50;;;23.30;47.60;;;;;;5110215;27;20546;-47
2022/07/02 13:19:11;;;;;;;1.50;0.70;;;23.30;46.40;;;;;;5072857;27;20533;-47
2022/07/02 13:21:53;;;;;;;0.80;0.60;;;23.30;46.30;;;;;;5047094;28;20518;-48
2022/07/02 13:24:34;;;;;;;1.10;0.70;;;23.30;46.30;;;;;;5088178;27;20530;-48
2022/07/02 13:27:16;;;;;;;0.70;0.60;;;23.30;46.20;;;;;;5082330;27;20609;-49
2022/07/02 13:29:57;;;;;;;1.57;0.47;;;23.30;46.20;;;;;;5068591;27;20542;-49
2022/07/02 13:32:38;;;;;;;1.80;0.70;;;23.30;46.20;;;;;;5112002;27;20613;-49
2022/07/02 13:35:20;;;;;;;0.70;0.70;;;23.40;46.30;;;;;;5098887;27;20597;-48
2022/07/02 13:38:01;;;;;;;1.23;0.70;;;23.40;46.40;;;;;;5124458;27;20649;-48
2022/07/02 13:40:42;;;;;;;0.90;0.43;;;23.40;46.50;;;;;;5063756;28;20547;-49
2022/07/02 13:43:22;;;;;;;0.70;0.50;;;23.40;46.40;;;;;;5125411;27;20533;-48
2022/07/02 13:46:03;;;;;;;0.80;0.63;;;23.40;46.40;;;;;;5062507;27;20620;-48
2022/07/02 13:48:45;;;;;;;1.27;0.60;;;23.40;46.30;;;;;;5128076;27;20567;-50
2022/07/02 13:51:29;;;;;;;0.60;0.50;;;23.40;46.40;;;;;;5065110;27;21109;-48
2022/07/02 13:54:12;;;;;;;0.80;0.40;;;23.40;46.20;;;;;;5118065;27;20569;-49
2022/07/02 13:56:55;;;;;;;2.23;0.70;;;23.50;46.30;;;;;;5067755;28;20551;-49
2022/07/02 13:59:36;;;;;;;0.90;0.70;;;23.50;46.10;;;;;;5074014;27;20541;-47
2022/07/02 14:02:17;;;;;;;0.50;0.50;;;23.50;46.20;;;;;;5079515;28;20538;-49
2022/07/02 14:04:59;;;;;;;0.70;0.60;;;23.50;46.40;;;;;;5089371;27;20577;-48
2022/07/02 14:07:40;;;;;;;0.80;0.70;;;23.50;46.40;;;;;;5085322;27;20569;-48
2022/07/02 14:10:29;;;;;;;0.70;0.67;;;23.50;46.40;;;;;;5059960;28;20546;-48
2022/07/02 14:13:13;;;;;;;0.87;0.60;;;23.50;46.40;;;;;;5149114;27;20923;-48
2022/07/02 14:15:53;;;;;;;1.87;0.60;;;23.60;45.90;;;;;;5054504;27;20551;-48